createdAt,value
2022-11-03T00:02:20.031Z,11.10
2022-11-03T00:04:47.417Z,11.20
2022-11-03T00:07:21.142Z,11.10
2022-11-03T00:09:49.696Z,11.10
2022-11-03T00:12:17.388Z,11.10
2022-11-03T00:14:44.638Z,11.00
2022-11-03T00:17:13.037Z,11.00
2022-11-03T00:19:41.389Z,11.00
2022-11-03T00:27:18.712Z,11.00
2022-11-03T00:29:46.047Z,11.00
2022-11-03T00:32:13.289Z,11.00
2022-11-03T00:34:41.349Z,11.00
2022-11-03T00:37:08.959Z,11.00
2022-11-03T00:39:36.548Z,11.10
2022-11-03T00:42:04.770Z,11.00
2022-11-03T00:44:32.868Z,11.00
2022-11-03T00:52:01.263Z,11.00
2022-11-03T00:54:28.700Z,11.10
2022-11-03T00:56:55.769Z,10.90
2022-11-03T00:59:24.039Z,11.00
2022-11-03T01:01:51.804Z,10.90
2022-11-03T01:04:39.697Z,10.90
2022-11-03T01:07:09.880Z,10.90
2022-11-03T01:12:16.799Z,10.90
2022-11-03T01:14:46.077Z,11.00
2022-11-03T01:17:16.030Z,11.10
2022-11-03T01:19:54.281Z,10.80
2022-11-03T01:22:22.767Z,10.80
2022-11-03T01:24:51.230Z,10.70
2022-11-03T01:27:21.637Z,10.80
2022-11-03T01:34:53.549Z,10.90
2022-11-03T01:37:21.114Z,10.70
2022-11-03T01:39:51.388Z,10.50
2022-11-03T01:42:18.534Z,10.70
2022-11-03T01:44:48.528Z,10.80
2022-11-03T01:47:46.455Z,10.70
2022-11-03T01:50:20.269Z,10.70
2022-11-03T01:57:13.750Z,10.90
2022-11-03T01:59:42.086Z,10.70
2022-11-03T02:02:12.397Z,10.60
2022-11-03T02:04:55.220Z,10.60
2022-11-03T02:07:34.337Z,10.70
2022-11-03T02:10:02.365Z,10.90
2022-11-03T02:12:31.320Z,11.00
2022-11-03T02:20:13.530Z,10.80
2022-11-03T02:23:09.067Z,10.90
2022-11-03T02:25:56.927Z,10.80
2022-11-03T02:28:34.612Z,10.50
2022-11-03T02:31:12.758Z,10.50
2022-11-03T02:33:48.229Z,10.60
2022-11-03T02:36:22.457Z,10.60
2022-11-03T02:43:06.301Z,10.60
2022-11-03T02:45:37.918Z,10.80
2022-11-03T02:48:07.157Z,10.80
2022-11-03T02:50:41.940Z,10.80
2022-11-03T02:53:11.429Z,10.60
2022-11-03T02:55:41.386Z,10.80
2022-11-03T03:03:44.247Z,10.80
2022-11-03T03:06:17.669Z,10.80
2022-11-03T03:08:48.599Z,10.90
2022-11-03T03:11:36.111Z,10.90
2022-11-03T03:14:06.727Z,10.90
2022-11-03T03:16:44.047Z,10.90
2022-11-03T03:24:48.908Z,10.90
2022-11-03T03:27:18.489Z,10.90
2022-11-03T03:29:49.391Z,10.90
2022-11-03T03:32:23.586Z,10.90
2022-11-03T03:34:52.227Z,10.90
2022-11-03T03:37:20.650Z,10.90
2022-11-03T03:39:54.409Z,10.90
2022-11-03T03:45:14.201Z,10.90
2022-11-03T03:47:41.969Z,10.80
2022-11-03T03:50:10.029Z,10.80
2022-11-03T03:52:38.099Z,10.80
2022-11-03T03:55:16.554Z,10.80
2022-11-03T03:57:45.168Z,10.80
2022-11-03T04:03:24.679Z,10.70
2022-11-03T04:05:53.822Z,10.70
2022-11-03T04:08:21.327Z,10.70
2022-11-03T04:11:02.887Z,10.60
2022-11-03T04:13:47.779Z,10.60
2022-11-03T04:16:33.209Z,10.50
2022-11-03T04:22:14.447Z,10.40
2022-11-03T04:24:41.870Z,10.40
2022-11-03T04:27:32.269Z,10.40
2022-11-03T04:30:16.868Z,10.40
2022-11-03T04:32:49.977Z,10.40
2022-11-03T04:35:18.472Z,10.30
2022-11-03T04:42:59.451Z,10.30
2022-11-03T04:45:30.318Z,10.30
2022-11-03T04:47:59.621Z,10.40
2022-11-03T04:50:27.148Z,10.30
2022-11-03T04:52:59.273Z,10.40
2022-11-03T04:55:27.381Z,10.40
2022-11-03T04:58:00.948Z,10.30
2022-11-03T05:00:28.536Z,10.20
2022-11-03T05:07:59.331Z,10.40
2022-11-03T05:10:33.391Z,10.30
2022-11-03T05:13:01.938Z,10.30
2022-11-03T05:15:37.006Z,10.30
2022-11-03T05:18:18.958Z,10.40
2022-11-03T05:20:50.753Z,10.50
2022-11-03T05:23:21.521Z,10.50
2022-11-03T05:28:49.480Z,10.40
2022-11-03T05:31:23.469Z,10.30
2022-11-03T05:33:53.366Z,10.30
2022-11-03T05:36:24.839Z,10.20
2022-11-03T05:38:56.250Z,10.30
2022-11-03T05:41:26.779Z,10.20
2022-11-03T05:44:01.677Z,10.20
2022-11-03T05:49:11.010Z,10.30
2022-11-03T05:51:42.148Z,10.10
2022-11-03T05:54:20.682Z,10.20
2022-11-03T05:56:48.405Z,10.20
2022-11-03T05:59:20.806Z,10.20
2022-11-03T06:01:48.309Z,10.20
2022-11-03T06:04:20.789Z,10.20
2022-11-03T06:11:05.451Z,10.30
2022-11-03T06:13:35.938Z,10.20
2022-11-03T06:16:06.142Z,10.20
2022-11-03T06:18:36.268Z,10.10
2022-11-03T06:21:07.502Z,10.00
2022-11-03T06:23:36.499Z,10.00
2022-11-03T06:31:23.158Z,10.10
2022-11-03T06:33:54.340Z,10.00
2022-11-03T06:36:25.819Z,10.00
2022-11-03T06:38:57.880Z,10.00
2022-11-03T06:41:27.779Z,10.00
2022-11-03T06:43:56.250Z,10.00
2022-11-03T06:46:31.870Z,10.00
2022-11-03T06:54:10.387Z,10.00
2022-11-03T06:56:39.132Z,10.00
2022-11-03T06:59:24.790Z,10.00
2022-11-03T07:01:55.790Z,9.80
2022-11-03T07:04:29.920Z,9.40
2022-11-03T07:07:03.119Z,9.40
2022-11-03T07:12:19.147Z,9.80
2022-11-03T07:14:46.519Z,9.50
2022-11-03T07:17:20.580Z,9.00
2022-11-03T07:19:48.470Z,8.90
2022-11-03T07:22:20.018Z,9.10
2022-11-03T07:24:48.576Z,9.10
2022-11-03T07:27:22.323Z,9.30
2022-11-03T07:34:54.101Z,9.10
2022-11-03T07:37:25.598Z,8.70
2022-11-03T07:39:53.868Z,8.80
2022-11-03T07:42:23.481Z,9.00
2022-11-03T07:44:51.763Z,9.00
2022-11-03T07:47:22.607Z,9.40
2022-11-03T07:49:50.697Z,9.20
2022-11-03T07:56:20.433Z,9.20
2022-11-03T07:58:51.057Z,9.70
2022-11-03T08:01:27.985Z,9.70
2022-11-03T08:04:00.069Z,9.80
2022-11-03T08:06:29.777Z,9.80
2022-11-03T08:08:56.879Z,10.10
2022-11-03T08:11:28.023Z,10.30
2022-11-03T08:18:33.007Z,10.30
2022-11-03T08:21:00.137Z,10.20
2022-11-03T08:23:30.809Z,10.30
2022-11-03T08:25:59.639Z,10.20
2022-11-03T08:28:28.559Z,10.40
2022-11-03T08:31:02.279Z,10.70
2022-11-03T08:33:38.170Z,10.30
2022-11-03T08:41:15.054Z,10.30
2022-11-03T08:43:44.828Z,10.30
2022-11-03T08:46:18.618Z,10.40
2022-11-03T08:49:01.110Z,10.40
2022-11-03T08:51:29.357Z,10.60
2022-11-03T08:54:00.342Z,11.00
2022-11-03T08:56:33.368Z,11.10
2022-11-03T09:02:09.550Z,11.20
2022-11-03T09:04:41.224Z,11.20
2022-11-03T09:07:14.417Z,11.10
2022-11-03T09:12:37.465Z,11.40
2022-11-03T09:15:11.610Z,11.80
2022-11-03T09:23:40.148Z,12.00
2022-11-03T09:26:11.857Z,12.20
2022-11-03T09:28:45.435Z,12.50
2022-11-03T09:31:20.492Z,12.60
2022-11-03T09:33:53.676Z,12.70
2022-11-03T09:36:32.638Z,12.70
2022-11-03T09:39:08.186Z,12.40
2022-11-03T09:47:30.738Z,12.90
2022-11-03T09:50:04.057Z,13.00
2022-11-03T09:52:35.189Z,12.30
2022-11-03T09:55:06.267Z,12.00
2022-11-03T09:57:43.430Z,11.80
2022-11-03T10:00:20.307Z,12.30
2022-11-03T10:08:48.905Z,12.20
2022-11-03T10:11:20.478Z,12.90
2022-11-03T10:13:55.220Z,12.60
2022-11-03T10:16:34.820Z,12.70
2022-11-03T10:19:10.080Z,13.00
2022-11-03T10:21:43.020Z,13.10
2022-11-03T10:24:18.933Z,13.00
2022-11-03T10:31:56.717Z,13.00
2022-11-03T10:34:27.921Z,12.90
2022-11-03T10:37:30.021Z,12.60
2022-11-03T10:40:01.223Z,12.60
2022-11-03T10:42:35.041Z,12.70
2022-11-03T10:45:26.607Z,12.50
2022-11-03T10:48:16.210Z,12.70
2022-11-03T10:55:53.371Z,12.70
2022-11-03T10:58:21.011Z,13.00
2022-11-03T11:00:49.004Z,13.10
2022-11-03T11:03:20.775Z,12.90
2022-11-03T11:05:54.107Z,12.80
2022-11-03T11:08:34.490Z,12.30
2022-11-03T11:16:30.070Z,12.50
2022-11-03T11:19:04.378Z,12.20
2022-11-03T11:22:17.007Z,12.40
2022-11-03T11:25:13.569Z,12.50
2022-11-03T11:28:19.699Z,12.50
2022-11-03T11:31:31.373Z,12.00
2022-11-03T11:35:06.991Z,12.40
2022-11-03T11:37:45.449Z,12.30
2022-11-03T11:43:40.920Z,12.30
2022-11-03T11:46:42.569Z,12.00
2022-11-03T11:49:22.388Z,11.80
2022-11-03T11:51:53.920Z,12.10
2022-11-03T11:54:24.868Z,12.00
2022-11-03T11:56:56.488Z,12.20
2022-11-03T12:08:31.777Z,12.20
2022-11-03T12:11:06.388Z,12.10
2022-11-03T12:13:51.362Z,12.30
2022-11-03T12:16:33.392Z,12.30
2022-11-03T12:19:35.987Z,12.50
2022-11-03T12:25:37.623Z,12.00
2022-11-03T12:28:09.117Z,12.30
2022-11-03T12:30:40.198Z,12.40
2022-11-03T12:33:11.081Z,12.50
2022-11-03T12:35:41.078Z,12.40
2022-11-03T12:38:11.134Z,12.30
2022-11-03T12:40:41.709Z,12.60
2022-11-03T12:48:20.797Z,12.70
2022-11-03T12:50:50.469Z,12.70
2022-11-03T12:53:19.968Z,12.70
2022-11-03T12:55:52.061Z,13.00
2022-11-03T12:58:22.287Z,13.10
2022-11-03T13:00:57.546Z,12.80
2022-11-03T13:06:14.843Z,12.40
2022-11-03T13:08:47.822Z,12.20
2022-11-03T13:11:36.199Z,12.30
2022-11-03T13:14:12.058Z,12.30
2022-11-03T13:16:39.391Z,11.90
2022-11-03T13:19:10.317Z,12.00
2022-11-03T13:24:31.988Z,12.60
2022-11-03T13:26:59.731Z,12.60
2022-11-03T13:29:31.037Z,12.70
2022-11-03T13:32:06.316Z,12.50
2022-11-03T13:34:33.687Z,12.40
2022-11-03T13:37:10.379Z,12.40
2022-11-03T13:39:41.228Z,12.50
2022-11-03T13:47:11.631Z,12.50
2022-11-03T13:50:13.159Z,12.00
2022-11-03T13:56:04.947Z,11.50
2022-11-03T14:01:25.069Z,11.70
2022-11-03T14:15:16.718Z,11.70
2022-11-03T14:17:43.940Z,11.30
2022-11-03T14:20:14.412Z,10.90
2022-11-03T14:22:42.080Z,10.60
2022-11-03T14:25:14.265Z,10.70
2022-11-03T14:27:45.347Z,10.70
2022-11-03T14:30:13.594Z,10.80
2022-11-03T14:37:47.160Z,11.00
2022-11-03T14:40:38.679Z,11.00
2022-11-03T14:43:10.432Z,10.70
2022-11-03T14:45:42.467Z,10.70
2022-11-03T14:48:16.048Z,10.80
2022-11-03T14:50:52.978Z,10.70
2022-11-03T14:53:23.999Z,10.70
2022-11-03T14:55:52.159Z,10.70
2022-11-03T15:00:59.267Z,10.90
2022-11-03T15:03:26.669Z,10.80
2022-11-03T15:06:08.149Z,10.90
2022-11-03T15:08:38.891Z,11.00
2022-11-03T15:11:10.221Z,11.00
2022-11-03T15:13:44.053Z,11.40
2022-11-03T15:16:28.547Z,11.50
2022-11-03T15:26:05.138Z,11.60
2022-11-03T15:28:33.451Z,11.40
2022-11-03T15:31:03.728Z,11.20
2022-11-03T15:33:33.161Z,10.90
2022-11-03T15:36:00.923Z,10.80
2022-11-03T15:38:30.117Z,10.90
2022-11-03T15:43:54.522Z,11.00
2022-11-03T15:46:22.533Z,10.70
2022-11-03T15:48:50.357Z,10.80
2022-11-03T15:51:18.050Z,11.00
2022-11-03T15:53:53.593Z,10.90
2022-11-03T15:56:24.797Z,10.80
2022-11-03T15:58:52.835Z,11.00
2022-11-03T16:04:18.352Z,11.00
2022-11-03T16:09:36.960Z,11.70
2022-11-03T16:12:06.687Z,11.70
2022-11-03T16:14:36.008Z,11.70
2022-11-03T16:17:05.911Z,11.80
2022-11-03T16:19:34.601Z,11.40
2022-11-03T16:26:39.740Z,11.40
2022-11-03T16:29:11.174Z,11.10
2022-11-03T16:31:45.168Z,10.70
2022-11-03T16:34:16.500Z,10.90
2022-11-03T16:36:45.029Z,11.20
2022-11-03T16:39:16.256Z,11.30
2022-11-03T16:45:04.502Z,11.30
2022-11-03T16:47:34.312Z,11.10
2022-11-03T16:50:03.060Z,11.40
2022-11-03T16:52:34.010Z,11.50
2022-11-03T16:55:07.281Z,11.50
2022-11-03T16:57:38.610Z,11.30
2022-11-03T17:05:51.020Z,10.90
2022-11-03T17:08:46.816Z,10.70
2022-11-03T17:11:08.776Z,10.80
2022-11-03T17:13:42.349Z,10.90
2022-11-03T17:16:13.602Z,10.80
2022-11-03T17:18:44.654Z,10.70
2022-11-03T17:21:19.153Z,10.70
2022-11-03T17:28:51.856Z,11.40
2022-11-03T17:31:19.868Z,11.70
2022-11-03T17:33:51.357Z,11.80
2022-11-03T17:36:20.426Z,11.70
2022-11-03T17:38:49.474Z,11.80
2022-11-03T17:41:19.157Z,11.90
2022-11-03T17:43:49.315Z,11.90
2022-11-03T17:49:03.826Z,11.80
2022-11-03T17:51:33.517Z,11.70
2022-11-03T17:54:06.382Z,11.70
2022-11-03T17:56:35.565Z,11.70
2022-11-03T17:59:04.229Z,11.60
2022-11-03T18:01:38.428Z,11.70
2022-11-03T18:11:49.164Z,11.90
2022-11-03T18:14:17.185Z,11.40
2022-11-03T18:16:47.527Z,11.20
2022-11-03T18:19:16.449Z,11.10
2022-11-03T18:21:47.143Z,11.00
2022-11-03T18:24:17.804Z,11.00
2022-11-03T18:26:47.007Z,11.10
2022-11-03T18:31:59.065Z,10.90
2022-11-03T18:34:28.258Z,10.90
2022-11-03T18:36:56.502Z,10.70
2022-11-03T18:39:26.807Z,10.70
2022-11-03T18:41:56.251Z,10.60
2022-11-03T18:44:27.647Z,11.00
2022-11-03T18:46:59.544Z,11.20
2022-11-03T18:54:51.795Z,11.40
2022-11-03T18:57:25.065Z,11.10
2022-11-03T18:59:52.920Z,11.20
2022-11-03T19:02:24.257Z,11.40
2022-11-03T19:04:55.766Z,11.40
2022-11-03T19:07:29.265Z,11.30
2022-11-03T19:10:00.786Z,11.20
2022-11-03T19:17:53.670Z,11.50
2022-11-03T19:20:24.715Z,11.70
2022-11-03T19:22:54.844Z,11.80
2022-11-03T19:25:22.994Z,11.80
2022-11-03T19:27:55.304Z,11.70
2022-11-03T19:30:26.798Z,11.70
2022-11-03T19:32:59.082Z,11.40
2022-11-03T19:40:37.727Z,11.40
2022-11-03T19:43:12.411Z,11.30
2022-11-03T19:45:39.846Z,11.30
2022-11-03T19:48:23.821Z,11.50
2022-11-03T19:50:54.185Z,11.30
2022-11-03T19:53:26.323Z,11.10
2022-11-03T19:55:57.067Z,11.10
2022-11-03T20:02:33.217Z,11.20
2022-11-03T20:05:02.316Z,11.30
2022-11-03T20:07:32.198Z,11.20
2022-11-03T20:10:04.778Z,10.80
2022-11-03T20:12:32.397Z,10.70
2022-11-03T20:14:59.756Z,10.80
2022-11-03T20:17:32.495Z,11.00
2022-11-03T20:24:50.595Z,11.30
2022-11-03T20:27:21.275Z,11.50
2022-11-03T20:29:51.251Z,11.60
2022-11-03T20:32:22.806Z,11.50
2022-11-03T20:34:50.880Z,11.50
2022-11-03T20:37:22.707Z,11.60
2022-11-03T20:47:04.524Z,11.70
2022-11-03T20:49:36.786Z,11.40
2022-11-03T20:52:05.723Z,11.50
2022-11-03T20:54:38.396Z,11.40
2022-11-03T20:57:10.006Z,11.40
2022-11-03T20:59:38.866Z,11.20
2022-11-03T21:02:14.988Z,11.10
2022-11-03T21:04:44.946Z,11.20
2022-11-03T21:07:17.034Z,11.20
2022-11-03T21:15:07.144Z,11.20
2022-11-03T21:17:52.906Z,11.20
2022-11-03T21:20:20.307Z,11.20
2022-11-03T21:23:01.165Z,11.10
2022-11-03T21:25:30.886Z,10.90
2022-11-03T21:27:58.830Z,11.00
2022-11-03T21:33:19.794Z,11.20
2022-11-03T21:35:48.324Z,10.90
2022-11-03T21:38:17.794Z,11.10
2022-11-03T21:40:56.178Z,11.10
2022-11-03T21:43:54.854Z,11.20
2022-11-03T21:46:26.626Z,11.10
2022-11-03T21:54:17.059Z,11.10
2022-11-03T21:56:44.836Z,11.40
2022-11-03T21:59:12.064Z,11.60
2022-11-03T22:01:40.041Z,11.30
2022-11-03T22:04:07.613Z,11.40
2022-11-03T22:06:35.547Z,11.40
2022-11-03T22:09:03.025Z,11.50
2022-11-03T22:11:31.974Z,11.70
2022-11-03T22:20:08.154Z,12.00
2022-11-03T22:22:53.534Z,11.90
2022-11-03T22:25:38.490Z,12.10
2022-11-03T22:28:08.947Z,12.20
2022-11-03T22:30:58.957Z,12.20
2022-11-03T22:33:54.484Z,12.50
2022-11-03T22:41:50.555Z,12.50
2022-11-03T22:44:36.115Z,12.40
2022-11-03T22:47:03.523Z,12.50
2022-11-03T22:49:36.856Z,12.30
2022-11-03T22:52:07.535Z,12.40
2022-11-03T22:54:34.217Z,12.40
2022-11-03T22:57:02.741Z,12.40
2022-11-03T23:04:35.507Z,12.30
2022-11-03T23:07:03.217Z,12.10
2022-11-03T23:09:31.257Z,12.20
2022-11-03T23:11:58.660Z,12.10
2022-11-03T23:14:46.851Z,12.10
2022-11-03T23:17:14.257Z,11.90
2022-11-03T23:20:00.697Z,11.70
2022-11-03T23:25:24.519Z,11.80
2022-11-03T23:27:53.896Z,11.90
2022-11-03T23:30:21.736Z,12.00
2022-11-03T23:32:51.859Z,11.90
2022-11-03T23:35:19.216Z,11.90
2022-11-03T23:37:46.998Z,12.00
2022-11-03T23:40:17.307Z,12.00
2022-11-03T23:42:49.007Z,12.00
2022-11-03T23:51:10.480Z,11.60
2022-11-03T23:53:37.828Z,11.90
2022-11-03T23:56:23.226Z,11.60
2022-11-03T23:58:51.306Z,11.50
